DLH6UL LHBP-EDDF
Flight info
| Callsign | DLH6UL |
|---|---|
| Flight time | 1h 14m |
| Altitude | 34000 |
| Route | GILEP DCT ZOLKU DCT BEGLA DCT DITIS DCT RAPET T170 GAPLA/N0400F240 T178 KERAX KERAX5A |
| Aircraft | A321/M-SDE3FGHIRWY/LB1 |
Departure
| Time | 2026-05-04 18:14 |
|---|---|
| Airport | Budapest Liszt Ferenc International Airport (LHBP) |
Arrival
| Time | 2026-05-04 19:29 |
|---|---|
| Airport | Frankfurt Main Airport (EDDF) |
| Time | Latitude | Longitude | Altitude | Speed | Heading |
|---|---|---|---|---|---|
| 2026-05-04 17:45 | 47.43412 | 19.26128 | 469 ft | 0 kts | 131° |
| 2026-05-04 18:00 | 47.43428 | 19.26106 | 469 ft | 4 kts | 156° |
| 2026-05-04 18:00 | 47.43451 | 19.26102 | 466 ft | 4 kts | 205° |
| 2026-05-04 18:00 | 47.43462 | 19.26112 | 465 ft | 0 kts | 226° |
| 2026-05-04 18:03 | 47.43456 | 19.26100 | 467 ft | 6 kts | 238° |
| 2026-05-04 18:03 | 47.43444 | 19.26012 | 469 ft | 10 kts | 246° |
| 2026-05-04 18:04 | 47.43425 | 19.25923 | 469 ft | 10 kts | 296° |
| 2026-05-04 18:04 | 47.43475 | 19.25846 | 469 ft | 11 kts | 307° |
| 2026-05-04 18:04 | 47.43530 | 19.25639 | 466 ft | 12 kts | 237° |
| 2026-05-04 18:05 | 47.43467 | 19.25552 | 469 ft | 13 kts | 221° |
| 2026-05-04 18:05 | 47.43398 | 19.25461 | 466 ft | 14 kts | 221° |
| 2026-05-04 18:05 | 47.43394 | 19.25347 | 467 ft | 13 kts | 306° |
| 2026-05-04 18:05 | 47.43381 | 19.25225 | 469 ft | 14 kts | 224° |
| 2026-05-04 18:06 | 47.43324 | 19.24976 | 468 ft | 15 kts | 306° |
| 2026-05-04 18:06 | 47.43400 | 19.24863 | 468 ft | 16 kts | 311° |
| 2026-05-04 18:06 | 47.43450 | 19.24777 | 468 ft | 17 kts | 310° |
| 2026-05-04 18:07 | 47.43557 | 19.24602 | 468 ft | 18 kts | 313° |
| 2026-05-04 18:07 | 47.43615 | 19.24508 | 468 ft | 19 kts | 311° |
| 2026-05-04 18:07 | 47.43734 | 19.24319 | 468 ft | 19 kts | 313° |
| 2026-05-04 18:07 | 47.43818 | 19.24178 | 468 ft | 17 kts | 311° |
| 2026-05-04 18:08 | 47.43868 | 19.24097 | 468 ft | 14 kts | 310° |
| 2026-05-04 18:08 | 47.43909 | 19.23991 | 466 ft | 9 kts | 284° |
| 2026-05-04 18:08 | 47.43911 | 19.23968 | 468 ft | 1 kts | 275° |
| 2026-05-04 18:08 | 47.43910 | 19.23946 | 468 ft | 3 kts | 265° |
| 2026-05-04 18:09 | 47.43868 | 19.23853 | 465 ft | 9 kts | 228° |
| 2026-05-04 18:09 | 47.43938 | 19.23587 | 462 ft | 19 kts | 312° |
| 2026-05-04 18:10 | 47.44063 | 19.23380 | 462 ft | 35 kts | 312° |
| 2026-05-04 18:10 | 47.44240 | 19.23090 | 464 ft | 38 kts | 313° |
| 2026-05-04 18:10 | 47.44417 | 19.22811 | 464 ft | 36 kts | 313° |
| 2026-05-04 18:10 | 47.44520 | 19.22560 | 464 ft | 21 kts | 263° |
| 2026-05-04 18:11 | 47.44498 | 19.22428 | 467 ft | 9 kts | 254° |
| 2026-05-04 18:11 | 47.44479 | 19.22332 | 465 ft | 11 kts | 255° |
| 2026-05-04 18:11 | 47.44507 | 19.22223 | 468 ft | 13 kts | 321° |
| 2026-05-04 18:11 | 47.44583 | 19.22138 | 468 ft | 17 kts | 323° |
| 2026-05-04 18:12 | 47.44697 | 19.22014 | 468 ft | 22 kts | 326° |
| 2026-05-04 18:12 | 47.44817 | 19.22022 | 467 ft | 19 kts | 42° |
| 2026-05-04 18:12 | 47.44806 | 19.22184 | 464 ft | 12 kts | 131° |
| 2026-05-04 18:12 | 47.44798 | 19.22198 | 464 ft | 0 kts | 132° |
| 2026-05-04 18:13 | 47.44430 | 19.22774 | 464 ft | 104 kts | 133° |
| 2026-05-04 18:14 | 47.43805 | 19.23789 | 464 ft | 160 kts | 131° |
| 2026-05-04 18:14 | 47.43030 | 19.25073 | 956 ft | 168 kts | 134° |
| 2026-05-04 18:14 | 47.42242 | 19.26347 | 1692 ft | 167 kts | 136° |
| 2026-05-04 18:15 | 47.40522 | 19.29097 | 2304 ft | 203 kts | 136° |
| 2026-05-04 18:15 | 47.38411 | 19.32484 | 3058 ft | 235 kts | 135° |
| 2026-05-04 18:15 | 47.37302 | 19.34280 | 3792 ft | 238 kts | 135° |
| 2026-05-04 18:16 | 47.36155 | 19.36071 | 4460 ft | 244 kts | 142° |
| 2026-05-04 18:16 | 47.34576 | 19.37055 | 4833 ft | 254 kts | 179° |
| 2026-05-04 18:16 | 47.32880 | 19.36396 | 5417 ft | 260 kts | 214° |
| 2026-05-04 18:17 | 47.30823 | 19.31985 | 6716 ft | 271 kts | 245° |
| 2026-05-04 18:17 | 47.30066 | 19.29423 | 7389 ft | 274 kts | 245° |
| 2026-05-04 18:17 | 47.28400 | 19.24323 | 8754 ft | 279 kts | 241° |
| 2026-05-04 18:18 | 47.27459 | 19.21811 | 9454 ft | 281 kts | 239° |
| 2026-05-04 18:18 | 47.26468 | 19.19314 | 10128 ft | 284 kts | 238° |
| 2026-05-04 18:18 | 47.25413 | 19.16746 | 10372 ft | 303 kts | 238° |
| 2026-05-04 18:18 | 47.24268 | 19.14013 | 10489 ft | 324 kts | 237° |
| 2026-05-04 18:19 | 47.21787 | 19.08032 | 10888 ft | 356 kts | 243° |
| 2026-05-04 18:19 | 47.21021 | 19.04546 | 11379 ft | 363 kts | 261° |
| 2026-05-04 18:19 | 47.21067 | 19.00824 | 11913 ft | 369 kts | 281° |
| 2026-05-04 18:20 | 47.21971 | 18.97274 | 12463 ft | 373 kts | 295° |
| 2026-05-04 18:20 | 47.23134 | 18.93844 | 13037 ft | 376 kts | 295° |
| 2026-05-04 18:20 | 47.24319 | 18.90394 | 13614 ft | 379 kts | 295° |
| 2026-05-04 18:20 | 47.25512 | 18.86925 | 14136 ft | 382 kts | 296° |
| 2026-05-04 18:21 | 47.26713 | 18.83418 | 14644 ft | 384 kts | 295° |
| 2026-05-04 18:21 | 47.27913 | 18.79890 | 15167 ft | 387 kts | 295° |
| 2026-05-04 18:21 | 47.29119 | 18.76335 | 15687 ft | 389 kts | 295° |
| 2026-05-04 18:21 | 47.30327 | 18.72757 | 16218 ft | 391 kts | 295° |
| 2026-05-04 18:22 | 47.31541 | 18.69155 | 16729 ft | 393 kts | 295° |
| 2026-05-04 18:22 | 47.32760 | 18.65531 | 17206 ft | 396 kts | 295° |
| 2026-05-04 18:22 | 47.33985 | 18.61885 | 17718 ft | 398 kts | 295° |
| 2026-05-04 18:22 | 47.35215 | 18.58217 | 18190 ft | 400 kts | 295° |
| 2026-05-04 18:23 | 47.36453 | 18.54528 | 18618 ft | 402 kts | 295° |
| 2026-05-04 18:23 | 47.37693 | 18.50830 | 19031 ft | 404 kts | 295° |
| 2026-05-04 18:23 | 47.38940 | 18.47101 | 19434 ft | 406 kts | 295° |
| 2026-05-04 18:23 | 47.40191 | 18.43353 | 19833 ft | 408 kts | 295° |
| 2026-05-04 18:24 | 47.41432 | 18.39631 | 20244 ft | 410 kts | 295° |
| 2026-05-04 18:24 | 47.42693 | 18.35843 | 20650 ft | 412 kts | 295° |
| 2026-05-04 18:24 | 47.43962 | 18.32027 | 21042 ft | 415 kts | 295° |
| 2026-05-04 18:24 | 47.45234 | 18.28190 | 21440 ft | 417 kts | 295° |
| 2026-05-04 18:25 | 47.46511 | 18.24327 | 21862 ft | 418 kts | 295° |
| 2026-05-04 18:25 | 47.47791 | 18.20459 | 22287 ft | 420 kts | 295° |
| 2026-05-04 18:25 | 47.49079 | 18.16571 | 22698 ft | 421 kts | 295° |
| 2026-05-04 18:25 | 47.50368 | 18.12670 | 23118 ft | 422 kts | 295° |
| 2026-05-04 18:26 | 47.51655 | 18.08757 | 23516 ft | 424 kts | 295° |
| 2026-05-04 18:26 | 47.52947 | 18.04826 | 23815 ft | 426 kts | 295° |
| 2026-05-04 18:26 | 47.54247 | 18.00875 | 24127 ft | 429 kts | 296° |
| 2026-05-04 18:26 | 47.55561 | 17.96886 | 24420 ft | 430 kts | 296° |
| 2026-05-04 18:27 | 47.56873 | 17.92894 | 24747 ft | 432 kts | 296° |
| 2026-05-04 18:27 | 47.58191 | 17.88866 | 25035 ft | 434 kts | 296° |
| 2026-05-04 18:27 | 47.59489 | 17.84884 | 25323 ft | 436 kts | 296° |
| 2026-05-04 18:27 | 47.60810 | 17.80821 | 25580 ft | 439 kts | 296° |
| 2026-05-04 18:28 | 47.62136 | 17.76730 | 25907 ft | 440 kts | 296° |
| 2026-05-04 18:28 | 47.63468 | 17.72632 | 26188 ft | 443 kts | 296° |
| 2026-05-04 18:28 | 47.64806 | 17.68514 | 26490 ft | 444 kts | 296° |
| 2026-05-04 18:28 | 47.66146 | 17.64381 | 26798 ft | 445 kts | 296° |
| 2026-05-04 18:29 | 47.67489 | 17.60231 | 27076 ft | 447 kts | 296° |
| 2026-05-04 18:29 | 47.68833 | 17.56066 | 27310 ft | 449 kts | 296° |
| 2026-05-04 18:29 | 47.70180 | 17.51875 | 27547 ft | 451 kts | 296° |
| 2026-05-04 18:29 | 47.71534 | 17.47655 | 27793 ft | 452 kts | 295° |
| 2026-05-04 18:30 | 47.74252 | 17.39183 | 28228 ft | 455 kts | 296° |
| 2026-05-04 18:30 | 47.75615 | 17.34938 | 28507 ft | 455 kts | 296° |
| 2026-05-04 18:30 | 47.76970 | 17.30703 | 28844 ft | 453 kts | 296° |
| 2026-05-04 18:31 | 47.78321 | 17.26472 | 29153 ft | 452 kts | 296° |
| 2026-05-04 18:31 | 47.79666 | 17.22249 | 29475 ft | 451 kts | 296° |
| 2026-05-04 18:31 | 47.81007 | 17.18028 | 29798 ft | 450 kts | 296° |
| 2026-05-04 18:31 | 47.82356 | 17.13832 | 30090 ft | 450 kts | 298° |
| 2026-05-04 18:32 | 47.83996 | 17.09878 | 30324 ft | 448 kts | 306° |
| 2026-05-04 18:32 | 47.85948 | 17.06277 | 30659 ft | 446 kts | 309° |
| 2026-05-04 18:32 | 47.87905 | 17.02717 | 30955 ft | 444 kts | 309° |
| 2026-05-04 18:32 | 47.89816 | 16.99180 | 31193 ft | 444 kts | 308° |
| 2026-05-04 18:33 | 47.91731 | 16.95595 | 31442 ft | 443 kts | 308° |
| 2026-05-04 18:33 | 47.93642 | 16.91992 | 31711 ft | 442 kts | 308° |
| 2026-05-04 18:33 | 47.95544 | 16.88404 | 32004 ft | 441 kts | 308° |
| 2026-05-04 18:33 | 47.97447 | 16.84824 | 32266 ft | 439 kts | 308° |
| 2026-05-04 18:34 | 47.99348 | 16.81259 | 32532 ft | 439 kts | 308° |
| 2026-05-04 18:34 | 48.01251 | 16.77698 | 32790 ft | 438 kts | 308° |
| 2026-05-04 18:34 | 48.03145 | 16.74152 | 33054 ft | 437 kts | 308° |
| 2026-05-04 18:34 | 48.05037 | 16.70598 | 33328 ft | 436 kts | 308° |
| 2026-05-04 18:35 | 48.06917 | 16.67052 | 33588 ft | 435 kts | 308° |
| 2026-05-04 18:35 | 48.08790 | 16.63508 | 33847 ft | 434 kts | 308° |
| 2026-05-04 18:35 | 48.10658 | 16.59969 | 33943 ft | 432 kts | 308° |
| 2026-05-04 18:36 | 48.14375 | 16.52930 | 33946 ft | 430 kts | 308° |
| 2026-05-04 18:36 | 48.18087 | 16.45891 | 33949 ft | 430 kts | 308° |
| 2026-05-04 18:37 | 48.21738 | 16.38960 | 33949 ft | 431 kts | 307° |
| 2026-05-04 18:37 | 48.25449 | 16.31886 | 33944 ft | 431 kts | 307° |
| 2026-05-04 18:38 | 48.29156 | 16.24800 | 33939 ft | 431 kts | 307° |
| 2026-05-04 18:38 | 48.32850 | 16.17707 | 33928 ft | 432 kts | 307° |
| 2026-05-04 18:39 | 48.36551 | 16.10591 | 33937 ft | 432 kts | 306° |
| 2026-05-04 18:39 | 48.40250 | 16.03447 | 33931 ft | 433 kts | 306° |
| 2026-05-04 18:40 | 48.43950 | 15.96290 | 33932 ft | 433 kts | 306° |
| 2026-05-04 18:40 | 48.47619 | 15.89172 | 33938 ft | 433 kts | 306° |
| 2026-05-04 18:41 | 48.51307 | 15.82001 | 33936 ft | 433 kts | 306° |
| 2026-05-04 18:41 | 48.55020 | 15.74774 | 33941 ft | 433 kts | 306° |
| 2026-05-04 18:42 | 48.58687 | 15.67619 | 33937 ft | 434 kts | 306° |
| 2026-05-04 18:42 | 48.62377 | 15.60396 | 33937 ft | 434 kts | 306° |
| 2026-05-04 18:43 | 48.66064 | 15.53147 | 33935 ft | 434 kts | 306° |
| 2026-05-04 18:43 | 48.69746 | 15.45890 | 33942 ft | 435 kts | 306° |
| 2026-05-04 18:44 | 48.73428 | 15.38614 | 33965 ft | 435 kts | 305° |
| 2026-05-04 18:44 | 48.77081 | 15.31381 | 33960 ft | 434 kts | 305° |
| 2026-05-04 18:45 | 48.80755 | 15.24096 | 33959 ft | 434 kts | 305° |
| 2026-05-04 18:45 | 48.84420 | 15.16795 | 33956 ft | 434 kts | 305° |
| 2026-05-04 18:46 | 48.88078 | 15.09486 | 33952 ft | 434 kts | 305° |
| 2026-05-04 18:46 | 48.91737 | 15.02171 | 34012 ft | 436 kts | 304° |
| 2026-05-04 18:46 | 48.93572 | 14.98491 | 34195 ft | 437 kts | 304° |
| 2026-05-04 18:47 | 48.95406 | 14.94807 | 34397 ft | 436 kts | 304° |
| 2026-05-04 18:47 | 48.97236 | 14.91126 | 34598 ft | 436 kts | 304° |
| 2026-05-04 18:47 | 48.99066 | 14.87438 | 34807 ft | 436 kts | 304° |
| 2026-05-04 18:47 | 49.00890 | 14.83752 | 35004 ft | 435 kts | 304° |
| 2026-05-04 18:48 | 49.02707 | 14.80081 | 35266 ft | 433 kts | 304° |
| 2026-05-04 18:48 | 49.04518 | 14.76416 | 35505 ft | 432 kts | 304° |
| 2026-05-04 18:48 | 49.06323 | 14.72756 | 35701 ft | 432 kts | 304° |
| 2026-05-04 18:48 | 49.08105 | 14.69140 | 35891 ft | 432 kts | 304° |
| 2026-05-04 18:49 | 49.09911 | 14.65475 | 35933 ft | 433 kts | 304° |
| 2026-05-04 18:49 | 49.13537 | 14.58103 | 35937 ft | 434 kts | 304° |
| 2026-05-04 18:50 | 49.17152 | 14.50713 | 35934 ft | 434 kts | 304° |
| 2026-05-04 18:50 | 49.20765 | 14.43311 | 35936 ft | 434 kts | 304° |
| 2026-05-04 18:51 | 49.24376 | 14.35911 | 35938 ft | 434 kts | 304° |
| 2026-05-04 18:51 | 49.27967 | 14.28539 | 35955 ft | 435 kts | 304° |
| 2026-05-04 18:52 | 49.31578 | 14.21081 | 35959 ft | 436 kts | 303° |
| 2026-05-04 18:52 | 49.35193 | 14.13595 | 35968 ft | 436 kts | 304° |
| 2026-05-04 18:53 | 49.38794 | 14.06120 | 35966 ft | 435 kts | 304° |
| 2026-05-04 18:53 | 49.41786 | 13.99905 | 35966 ft | 435 kts | 303° |
| 2026-05-04 18:54 | 49.45383 | 13.92410 | 35974 ft | 436 kts | 303° |
| 2026-05-04 18:54 | 49.48974 | 13.84896 | 35972 ft | 436 kts | 303° |
| 2026-05-04 18:55 | 49.52565 | 13.77355 | 35968 ft | 437 kts | 303° |
| 2026-05-04 18:55 | 49.57948 | 13.66020 | 35970 ft | 437 kts | 303° |
| 2026-05-04 18:56 | 49.61532 | 13.58442 | 35988 ft | 437 kts | 303° |
| 2026-05-04 18:56 | 49.65113 | 13.50863 | 35981 ft | 437 kts | 303° |
| 2026-05-04 18:57 | 49.68688 | 13.43272 | 35976 ft | 437 kts | 303° |
| 2026-05-04 18:57 | 49.72256 | 13.35665 | 35952 ft | 440 kts | 302° |
| 2026-05-04 18:58 | 49.75871 | 13.27918 | 35949 ft | 448 kts | 302° |
| 2026-05-04 18:58 | 49.79520 | 13.20106 | 35948 ft | 453 kts | 303° |
| 2026-05-04 18:59 | 49.83219 | 13.12192 | 35953 ft | 454 kts | 303° |
| 2026-05-04 18:59 | 49.86908 | 13.04249 | 35956 ft | 454 kts | 302° |
| 2026-05-04 19:00 | 49.90587 | 12.96286 | 35962 ft | 455 kts | 302° |
| 2026-05-04 19:00 | 49.94266 | 12.88294 | 35991 ft | 455 kts | 302° |
| 2026-05-04 19:01 | 49.97947 | 12.80290 | 36009 ft | 455 kts | 302° |
| 2026-05-04 19:01 | 50.01611 | 12.72272 | 36000 ft | 455 kts | 302° |
| 2026-05-04 19:02 | 50.05277 | 12.64235 | 35997 ft | 455 kts | 302° |
| 2026-05-04 19:02 | 50.08947 | 12.56193 | 35995 ft | 456 kts | 302° |
| 2026-05-04 19:03 | 50.12612 | 12.48140 | 35998 ft | 455 kts | 302° |
| 2026-05-04 19:03 | 50.16264 | 12.40066 | 35998 ft | 456 kts | 301° |
| 2026-05-04 19:04 | 50.19523 | 12.31661 | 35984 ft | 450 kts | 290° |
| 2026-05-04 19:04 | 50.21657 | 12.22520 | 35984 ft | 448 kts | 287° |
| 2026-05-04 19:05 | 50.23773 | 12.13351 | 35990 ft | 449 kts | 287° |
| 2026-05-04 19:05 | 50.25877 | 12.04167 | 36007 ft | 449 kts | 287° |
| 2026-05-04 19:06 | 50.27964 | 11.95030 | 36006 ft | 449 kts | 287° |
| 2026-05-04 19:06 | 50.30078 | 11.85849 | 36003 ft | 448 kts | 287° |
| 2026-05-04 19:07 | 50.32171 | 11.76692 | 35889 ft | 440 kts | 287° |
| 2026-05-04 19:07 | 50.33189 | 11.72222 | 35413 ft | 434 kts | 287° |
| 2026-05-04 19:07 | 50.34201 | 11.67780 | 34908 ft | 430 kts | 287° |
| 2026-05-04 19:08 | 50.35202 | 11.63376 | 34413 ft | 429 kts | 286° |
| 2026-05-04 19:08 | 50.36198 | 11.58964 | 33947 ft | 430 kts | 287° |
| 2026-05-04 19:08 | 50.37191 | 11.54548 | 33390 ft | 430 kts | 286° |
| 2026-05-04 19:08 | 50.38182 | 11.50128 | 32853 ft | 431 kts | 286° |
| 2026-05-04 19:09 | 50.39177 | 11.45691 | 32318 ft | 432 kts | 286° |
| 2026-05-04 19:09 | 50.40170 | 11.41246 | 31798 ft | 432 kts | 286° |
| 2026-05-04 19:09 | 50.41163 | 11.36787 | 31285 ft | 433 kts | 286° |
| 2026-05-04 19:09 | 50.42160 | 11.32322 | 30797 ft | 434 kts | 286° |
| 2026-05-04 19:10 | 50.43161 | 11.27852 | 30303 ft | 435 kts | 286° |
| 2026-05-04 19:10 | 50.44160 | 11.23370 | 29772 ft | 436 kts | 286° |
| 2026-05-04 19:10 | 50.45157 | 11.18873 | 29207 ft | 437 kts | 286° |
| 2026-05-04 19:10 | 50.46157 | 11.14358 | 28658 ft | 440 kts | 286° |
| 2026-05-04 19:11 | 50.47160 | 11.09807 | 28135 ft | 442 kts | 286° |
| 2026-05-04 19:11 | 50.48165 | 11.05219 | 27599 ft | 451 kts | 286° |
| 2026-05-04 19:11 | 50.49194 | 11.00495 | 27075 ft | 462 kts | 286° |
| 2026-05-04 19:11 | 50.50241 | 10.95685 | 26567 ft | 467 kts | 286° |
| 2026-05-04 19:12 | 50.51294 | 10.90849 | 26055 ft | 469 kts | 286° |
| 2026-05-04 19:12 | 50.53419 | 10.81095 | 25081 ft | 474 kts | 286° |
| 2026-05-04 19:12 | 50.54473 | 10.76177 | 24601 ft | 475 kts | 283° |
| 2026-05-04 19:13 | 50.54967 | 10.71081 | 24161 ft | 469 kts | 269° |
| 2026-05-04 19:13 | 50.54749 | 10.65977 | 23959 ft | 468 kts | 263° |
| 2026-05-04 19:13 | 50.54434 | 10.60870 | 23979 ft | 469 kts | 263° |
| 2026-05-04 19:13 | 50.54120 | 10.55838 | 23981 ft | 469 kts | 263° |
| 2026-05-04 19:14 | 50.53795 | 10.50718 | 23809 ft | 469 kts | 263° |
| 2026-05-04 19:14 | 50.53468 | 10.45635 | 23522 ft | 467 kts | 262° |
| 2026-05-04 19:14 | 50.53139 | 10.40555 | 23236 ft | 466 kts | 262° |
| 2026-05-04 19:14 | 50.52811 | 10.35498 | 22986 ft | 464 kts | 263° |
| 2026-05-04 19:15 | 50.52481 | 10.30446 | 22751 ft | 463 kts | 262° |
| 2026-05-04 19:15 | 50.52150 | 10.25426 | 22546 ft | 461 kts | 262° |
| 2026-05-04 19:15 | 50.51816 | 10.20420 | 22314 ft | 459 kts | 262° |
| 2026-05-04 19:15 | 50.51487 | 10.15488 | 21455 ft | 450 kts | 262° |
| 2026-05-04 19:16 | 50.51162 | 10.10628 | 20568 ft | 445 kts | 262° |
| 2026-05-04 19:16 | 50.50839 | 10.05823 | 19683 ft | 440 kts | 262° |
| 2026-05-04 19:16 | 50.50515 | 10.01064 | 18826 ft | 436 kts | 262° |
| 2026-05-04 19:16 | 50.50193 | 9.96355 | 17945 ft | 431 kts | 262° |
| 2026-05-04 19:17 | 50.49873 | 9.91699 | 16994 ft | 427 kts | 262° |
| 2026-05-04 19:17 | 50.49553 | 9.87096 | 16090 ft | 422 kts | 262° |
| 2026-05-04 19:17 | 50.49235 | 9.82538 | 15207 ft | 417 kts | 262° |
| 2026-05-04 19:17 | 50.48919 | 9.78034 | 14353 ft | 413 kts | 262° |
| 2026-05-04 19:18 | 50.48604 | 9.73574 | 13483 ft | 409 kts | 262° |
| 2026-05-04 19:18 | 50.48175 | 9.69184 | 12577 ft | 403 kts | 253° |
| 2026-05-04 19:18 | 50.47097 | 9.65193 | 11849 ft | 392 kts | 237° |
| 2026-05-04 19:18 | 50.45489 | 9.61856 | 11472 ft | 375 kts | 230° |
| 2026-05-04 19:19 | 50.43878 | 9.58741 | 11110 ft | 360 kts | 230° |
| 2026-05-04 19:19 | 50.42323 | 9.55741 | 10958 ft | 351 kts | 230° |
| 2026-05-04 19:19 | 50.40778 | 9.52770 | 10973 ft | 351 kts | 230° |
| 2026-05-04 19:19 | 50.39231 | 9.49798 | 10764 ft | 352 kts | 230° |
| 2026-05-04 19:20 | 50.37693 | 9.46846 | 10342 ft | 347 kts | 230° |
| 2026-05-04 19:20 | 50.36210 | 9.44011 | 9941 ft | 336 kts | 229° |
| 2026-05-04 19:20 | 50.34745 | 9.41216 | 9503 ft | 327 kts | 229° |
| 2026-05-04 19:20 | 50.33320 | 9.38500 | 9064 ft | 319 kts | 229° |
| 2026-05-04 19:21 | 50.31924 | 9.35839 | 8621 ft | 312 kts | 230° |
| 2026-05-04 19:21 | 50.30559 | 9.33241 | 8186 ft | 306 kts | 230° |
| 2026-05-04 19:21 | 50.29217 | 9.30685 | 7759 ft | 302 kts | 230° |
| 2026-05-04 19:21 | 50.27901 | 9.28177 | 7438 ft | 294 kts | 230° |
| 2026-05-04 19:22 | 50.26619 | 9.25742 | 7186 ft | 287 kts | 229° |
| 2026-05-04 19:22 | 50.25275 | 9.23198 | 7008 ft | 322 kts | 229° |
| 2026-05-04 19:22 | 50.23785 | 9.20383 | 6978 ft | 350 kts | 229° |
| 2026-05-04 19:22 | 50.22198 | 9.17389 | 6745 ft | 359 kts | 229° |
| 2026-05-04 19:23 | 50.20606 | 9.14381 | 6126 ft | 362 kts | 229° |
| 2026-05-04 19:23 | 50.18991 | 9.11332 | 6009 ft | 366 kts | 229° |
| 2026-05-04 19:23 | 50.17360 | 9.08259 | 5977 ft | 367 kts | 229° |
| 2026-05-04 19:23 | 50.15724 | 9.05176 | 6028 ft | 370 kts | 229° |
| 2026-05-04 19:24 | 50.14257 | 9.01903 | 6003 ft | 370 kts | 242° |
| 2026-05-04 19:24 | 50.13278 | 8.98199 | 5611 ft | 369 kts | 249° |
| 2026-05-04 19:24 | 50.12464 | 8.94530 | 5132 ft | 342 kts | 250° |
| 2026-05-04 19:24 | 50.11707 | 8.91199 | 4701 ft | 310 kts | 249° |
| 2026-05-04 19:25 | 50.10992 | 8.88183 | 4303 ft | 285 kts | 249° |
| 2026-05-04 19:25 | 50.10333 | 8.85398 | 3932 ft | 264 kts | 249° |
| 2026-05-04 19:25 | 50.09710 | 8.82751 | 3580 ft | 258 kts | 250° |
| 2026-05-04 19:25 | 50.09095 | 8.80141 | 3250 ft | 256 kts | 250° |
| 2026-05-04 19:26 | 50.08483 | 8.77547 | 2909 ft | 254 kts | 250° |
| 2026-05-04 19:26 | 50.07885 | 8.75008 | 2571 ft | 249 kts | 251° |
| 2026-05-04 19:26 | 50.07570 | 8.72451 | 2196 ft | 225 kts | 266° |
| 2026-05-04 19:26 | 50.07254 | 8.70226 | 2061 ft | 205 kts | 250° |
| 2026-05-04 19:27 | 50.06765 | 8.68257 | 1794 ft | 181 kts | 251° |
| 2026-05-04 19:27 | 50.06379 | 8.66522 | 1599 ft | 163 kts | 253° |
| 2026-05-04 19:27 | 50.06019 | 8.64913 | 1332 ft | 154 kts | 252° |
| 2026-05-04 19:27 | 50.05645 | 8.63371 | 1013 ft | 149 kts | 249° |
| 2026-05-04 19:28 | 50.05258 | 8.61906 | 881 ft | 145 kts | 251° |
| 2026-05-04 19:28 | 50.04923 | 8.60424 | 668 ft | 145 kts | 250° |
| 2026-05-04 19:28 | 50.04574 | 8.58976 | 464 ft | 143 kts | 251° |
| 2026-05-04 19:28 | 50.04248 | 8.57577 | 367 ft | 118 kts | 249° |
| 2026-05-04 19:29 | 50.04058 | 8.56795 | 360 ft | 53 kts | 249° |
| 2026-05-04 19:29 | 50.03990 | 8.56367 | 353 ft | 27 kts | 272° |
| 2026-05-04 19:29 | 50.03999 | 8.56224 | 354 ft | 14 kts | 282° |
| 2026-05-04 19:29 | 50.04010 | 8.56156 | 354 ft | 0 kts | 281° |
| 2026-05-04 19:31 | 50.04012 | 8.56142 | 359 ft | 6 kts | 283° |
| 2026-05-04 19:31 | 50.04057 | 8.56085 | 357 ft | 10 kts | 5° |
| 2026-05-04 19:31 | 50.04103 | 8.56179 | 359 ft | 17 kts | 68° |
| 2026-05-04 19:31 | 50.04154 | 8.56381 | 358 ft | 21 kts | 68° |
| 2026-05-04 19:32 | 50.04203 | 8.56596 | 360 ft | 21 kts | 70° |
| 2026-05-04 19:32 | 50.04252 | 8.56807 | 364 ft | 20 kts | 68° |
| 2026-05-04 19:32 | 50.04306 | 8.57017 | 362 ft | 21 kts | 70° |
| 2026-05-04 19:32 | 50.04355 | 8.57235 | 361 ft | 22 kts | 71° |
| 2026-05-04 19:33 | 50.04409 | 8.57461 | 361 ft | 23 kts | 69° |
| 2026-05-04 19:33 | 50.04463 | 8.57683 | 365 ft | 21 kts | 69° |
| 2026-05-04 19:33 | 50.04507 | 8.57871 | 365 ft | 9 kts | 71° |
| 2026-05-04 19:33 | 50.04532 | 8.57982 | 369 ft | 13 kts | 70° |
| 2026-05-04 19:34 | 50.04586 | 8.58202 | 369 ft | 25 kts | 69° |
| 2026-05-04 19:34 | 50.04647 | 8.58453 | 373 ft | 25 kts | 69° |
| 2026-05-04 19:34 | 50.04709 | 8.58711 | 370 ft | 26 kts | 66° |
| 2026-05-04 19:34 | 50.04760 | 8.58899 | 373 ft | 16 kts | 69° |
| 2026-05-04 19:35 | 50.04816 | 8.59000 | 373 ft | 14 kts | 6° |
| 2026-05-04 19:35 | 50.04863 | 8.58983 | 370 ft | 4 kts | 316° |
| 2026-05-04 19:35 | 50.04874 | 8.58974 | 368 ft | 1 kts | 348° |
| 2026-05-04 19:35 | 50.04873 | 8.58975 | 368 ft | 1 kts | 350° |
| 2026-05-04 19:36 | 50.04870 | 8.58975 | 368 ft | 0 kts | 342° |